Time;durP1;ratioP1;P1;durP2;ratioP2;P2;SDS_P1;SDS_P2;PMS_P1;PMS_P2;Temp;Humidity;BMP_temperature;BMP_pressure;BME280_temperature;BME280_humidity;BME280_pressure;Samples;Min_cycle;Max_cycle;Signal;HPM_P1;HPM_P2
2022/01/15 00:08:36;;;;;;;2.95;1.45;;;11.70;61.80;;;;;;20491579;29;20039;-79
2022/01/15 00:18:47;;;;;;;3.28;1.55;;;11.60;61.80;;;;;;20475043;29;20130;-78
2022/01/15 00:28:50;;;;;;;2.58;1.20;;;11.60;61.70;;;;;;20490318;29;20398;-78
2022/01/15 00:38:56;;;;;;;2.85;1.33;;;11.60;61.80;;;;;;20473707;28;20050;-80
2022/01/15 00:48:56;;;;;;;2.67;1.17;;;11.60;61.70;;;;;;20504609;28;20133;-78
2022/01/15 00:58:58;;;;;;;2.60;0.93;;;11.50;61.80;;;;;;20488491;29;20494;-79
2022/01/15 01:08:59;;;;;;;1.42;0.90;;;11.60;61.80;;;;;;20505160;29;20047;-77
2022/01/15 01:39:24;;;;;;;2.30;0.95;;;11.60;61.80;;;;;;20486953;28;20142;-78
2022/01/15 01:49:27;;;;;;;1.38;0.90;;;11.60;61.80;;;;;;20470709;29;20069;-78
2022/01/15 01:59:30;;;;;;;1.02;0.80;;;11.50;61.70;;;;;;20493996;28;20066;-79
2022/01/15 02:09:31;;;;;;;1.02;0.90;;;11.50;61.70;;;;;;20483721;29;20417;-80
2022/01/15 02:19:44;;;;;;;1.42;0.80;;;11.50;61.70;;;;;;20484583;29;20031;-79
2022/01/15 02:29:45;;;;;;;1.02;0.80;;;11.50;61.70;;;;;;20500697;29;20043;-79
2022/01/15 02:39:48;;;;;;;0.98;0.65;;;11.50;61.70;;;;;;20482662;28;20538;-79
2022/01/15 02:49:49;;;;;;;1.90;0.88;;;11.50;61.60;;;;;;20498957;29;20437;-77
2022/01/15 02:59:51;;;;;;;1.73;0.90;;;11.50;61.60;;;;;;20481190;29;20043;-76
2022/01/15 03:09:54;;;;;;;0.85;0.47;;;11.40;62.20;;;;;;20480055;28;20110;-77
2022/01/15 03:19:55;;;;;;;1.23;0.80;;;11.50;61.50;;;;;;20513410;29;20047;-76
2022/01/15 03:29:56;;;;;;;0.60;0.50;;;11.40;61.40;;;;;;20513394;29;20031;-78
2022/01/15 03:39:57;;;;;;;0.73;0.50;;;11.50;61.40;;;;;;20494585;28;20417;-77
2022/01/15 03:49:59;;;;;;;1.27;0.68;;;11.40;61.30;;;;;;20477324;29;20039;-77
2022/01/15 04:00:00;;;;;;;0.75;0.50;;;11.40;61.20;;;;;;20509131;29;20046;-77
2022/01/15 04:10:01;;;;;;;0.75;0.50;;;11.40;61.20;;;;;;20491959;29;20043;-77
2022/01/15 04:20:03;;;;;;;0.52;0.32;;;11.40;61.20;;;;;;20474262;28;20098;-77
2022/01/15 04:30:08;;;;;;;0.45;0.40;;;11.40;61.10;;;;;;20474149;29;20039;-78
2022/01/15 04:40:11;;;;;;;0.73;0.40;;;11.40;61.00;;;;;;20490034;28;20405;-77
2022/01/15 04:50:16;;;;;;;0.50;0.50;;;11.40;61.00;;;;;;20473682;29;20039;-77
2022/01/15 05:00:17;;;;;;;0.75;0.30;;;11.40;61.00;;;;;;20472538;29;20185;-77
2022/01/15 05:10:23;;;;;;;1.73;0.90;;;11.40;61.10;;;;;;20471990;29;20039;-77
2022/01/15 05:20:26;;;;;;;0.77;0.40;;;11.70;60.10;;;;;;20471590;29;20032;-77
2022/01/15 05:30:30;;;;;;;0.70;0.40;;;12.70;58.00;;;;;;20490739;28;20430;-77
2022/01/15 05:40:30;;;;;;;0.95;0.50;;;13.60;55.60;;;;;;20487696;28;20047;-77
2022/01/15 05:50:32;;;;;;;0.68;0.50;;;14.40;53.40;;;;;;20501918;29;20057;-78
2022/01/15 06:00:34;;;;;;;0.60;0.40;;;15.00;52.00;;;;;;20501279;29;20032;-77
2022/01/15 06:10:36;;;;;;;0.50;0.40;;;15.10;51.20;;;;;;20485090;29;20041;-77
2022/01/15 06:20:37;;;;;;;0.40;0.40;;;15.10;50.80;;;;;;20484112;29;20031;-78
2022/01/15 06:30:38;;;;;;;0.55;0.35;;;15.00;50.80;;;;;;20483757;29;20106;-79
2022/01/15 06:40:39;;;;;;;0.50;0.30;;;14.30;51.80;;;;;;20497720;28;20047;-77
2022/01/15 06:50:40;;;;;;;0.63;0.55;;;13.60;53.20;;;;;;20481879;29;20070;-76
2022/01/15 07:00:41;;;;;;;0.65;0.40;;;13.00;54.50;;;;;;20497241;29;20070;-76
2022/01/15 07:10:43;;;;;;;0.40;0.30;;;12.50;55.70;;;;;;20481658;29;20051;-79
2022/01/15 07:20:45;;;;;;;0.32;0.32;;;12.20;56.60;;;;;;20480449;29;20126;-79
2022/01/15 07:30:47;;;;;;;0.55;0.40;;;11.90;57.40;;;;;;20510996;29;20038;-79
2022/01/15 07:40:48;;;;;;;0.50;0.30;;;11.80;57.90;;;;;;20494203;28;20051;-79
2022/01/15 07:50:50;;;;;;;0.55;0.40;;;11.70;58.40;;;;;;20536824;28;20513;-80
2022/01/15 08:00:52;;;;;;;0.50;0.40;;;11.60;58.60;;;;;;20574585;28;20453;-82
2022/01/15 08:10:52;;;;;;;0.28;0.20;;;11.60;58.70;;;;;;20556592;28;20405;-80
2022/01/15 08:20:54;;;;;;;0.77;0.50;;;11.60;58.80;;;;;;20560838;28;20039;-77
2022/01/15 08:30:54;;;;;;;1.20;0.40;;;11.60;59.00;;;;;;20651192;28;20148;-80
2022/01/15 08:40:55;;;;;;;0.80;0.40;;;11.60;59.00;;;;;;20651358;28;20673;-79
2022/01/15 08:50:56;;;;;;;0.20;0.20;;;11.50;59.10;;;;;;20649380;28;20035;-75
2022/01/15 09:00:57;;;;;;;0.30;0.30;;;11.60;59.20;;;;;;20630186;28;20092;-79
2022/01/15 09:10:57;;;;;;;0.75;0.52;;;11.50;59.30;;;;;;20562021;28;20114;-78
2022/01/15 09:20:58;;;;;;;0.57;0.43;;;11.50;59.50;;;;;;20518105;28;20464;-80
2022/01/15 09:30:59;;;;;;;4.90;0.60;;;11.40;59.60;;;;;;20533965;28;20445;-77
2022/01/15 09:40:59;;;;;;;2.60;1.30;;;11.40;59.80;;;;;;20573347;28;20050;-79
2022/01/15 09:51:00;;;;;;;3.65;1.52;;;11.40;59.80;;;;;;20547569;28;20370;-79
2022/01/15 10:01:02;;;;;;;3.45;1.25;;;11.30;59.70;;;;;;20562943;28;20126;-79
2022/01/15 10:11:07;;;;;;;6.50;2.20;;;11.20;59.70;;;;;;20547596;28;20027;-78
2022/01/15 10:21:18;;;;;;;7.05;1.10;;;11.20;59.90;;;;;;20554928;28;20066;-79
2022/01/15 10:31:20;;;;;;;4.95;1.38;;;11.40;60.00;;;;;;20564006;28;20038;-79
2022/01/15 10:41:31;;;;;;;6.82;1.13;;;11.30;60.20;;;;;;20512424;28;20043;-78
2022/01/15 10:51:31;;;;;;;2.67;1.42;;;11.30;60.30;;;;;;20509231;29;20046;-77
2022/01/15 11:01:32;;;;;;;3.10;0.98;;;11.30;60.40;;;;;;20491423;29;20043;-77
2022/01/15 11:11:34;;;;;;;5.45;0.93;;;11.20;60.80;;;;;;20508834;28;20405;-75
2022/01/15 11:21:34;;;;;;;3.15;0.70;;;11.70;59.90;;;;;;20593016;28;20041;-76
2022/01/15 11:31:35;;;;;;;10.05;2.13;;;12.70;58.00;;;;;;20654714;28;20034;-77
2022/01/15 11:41:38;;;;;;;2.70;0.90;;;13.50;56.00;;;;;;21105071;23;20459;-77
2022/01/15 11:51:39;;;;;;;4.10;1.95;;;14.30;54.30;;;;;;20750164;28;20053;-73
2022/01/15 12:01:44;;;;;;;7.15;1.25;;;14.80;52.80;;;;;;20749204;28;20038;-75
2022/01/15 12:11:48;;;;;;;3.08;0.88;;;15.00;52.10;;;;;;20742408;28;20034;-78
2022/01/15 12:21:53;;;;;;;3.55;0.98;;;15.00;51.80;;;;;;20731120;28;20614;-78
2022/01/15 12:31:54;;;;;;;2.92;1.00;;;15.00;51.60;;;;;;20717148;28;20041;-79
2022/01/15 12:41:56;;;;;;;4.70;1.00;;;14.90;51.70;;;;;;20710914;28;20392;-77
2022/01/15 12:52:19;;;;;;;3.20;1.33;;;14.90;51.80;;;;;;20737371;28;20316;-76
2022/01/15 13:02:26;;;;;;;2.40;1.00;;;14.50;52.20;;;;;;20740742;28;20042;-78
2022/01/15 13:12:43;;;;;;;2.38;0.98;;;13.90;53.50;;;;;;20715245;28;20065;-77
2022/01/15 13:22:50;;;;;;;;;;;13.30;54.80;;;;;;20661843;28;20136;-75
2022/01/15 13:33:01;;;;;;;1.42;0.52;;;12.90;56.00;;;;;;20644636;28;19913;-76
2022/01/15 13:43:03;;;;;;;2.67;0.80;;;12.50;57.00;;;;;;20694078;28;20129;-76
2022/01/15 13:53:06;;;;;;;1.85;0.75;;;12.20;57.80;;;;;;20730658;28;20029;-76
2022/01/15 14:03:07;;;;;;;3.47;1.00;;;12.10;58.50;;;;;;20742861;28;20034;-76
2022/01/15 14:13:09;;;;;;;4.00;1.20;;;11.90;59.00;;;;;;20740490;28;20176;-77
2022/01/15 14:23:11;;;;;;;4.57;1.08;;;12.00;59.30;;;;;;20652614;28;20034;-76
2022/01/15 14:33:14;;;;;;;3.17;0.80;;;12.00;59.40;;;;;;20694580;28;20129;-74
2022/01/15 14:43:14;;;;;;;4.68;0.98;;;12.10;59.40;;;;;;20749228;28;20050;-75
2022/01/15 14:53:16;;;;;;;6.65;1.00;;;12.10;59.40;;;;;;20764210;28;20111;-80
2022/01/15 15:03:19;;;;;;;1.85;0.70;;;12.10;59.40;;;;;;20826973;28;20490;-74
2022/01/15 15:13:27;;;;;;;10.90;1.17;;;12.20;59.50;;;;;;20735249;28;20037;-73
2022/01/15 15:23:32;;;;;;;5.00;1.20;;;12.20;59.70;;;;;;20751640;28;20061;-75
2022/01/15 15:33:35;;;;;;;3.22;1.02;;;12.20;59.80;;;;;;20733813;28;20038;-73
2022/01/15 15:43:37;;;;;;;3.08;0.90;;;12.20;59.70;;;;;;20716344;28;20042;-75
2022/01/15 15:54:05;;;;;;;5.30;1.02;;;12.70;58.80;;;;;;20732209;28;20061;-75
2022/01/15 16:04:29;;;;;;;3.75;1.10;;;13.50;57.10;;;;;;20748120;28;20037;-76
2022/01/15 16:14:42;;;;;;;5.93;1.52;;;14.30;55.30;;;;;;20735907;28;20457;-75
2022/01/15 16:24:58;;;;;;;1.83;0.75;;;14.40;54.40;;;;;;20714637;28;20136;-76
2022/01/15 16:35:13;;;;;;;6.13;1.52;;;14.00;55.00;;;;;;20763855;28;20033;-77
2022/01/15 16:45:22;;;;;;;5.97;1.65;;;13.40;56.10;;;;;;20717268;28;20046;-80
2022/01/15 16:55:24;;;;;;;2.25;0.98;;;13.00;57.20;;;;;;20750160;28;20042;-82
2022/01/15 17:05:26;;;;;;;3.13;1.33;;;12.70;58.20;;;;;;20702710;28;20474;-75
2022/01/15 17:15:27;;;;;;;2.90;1.23;;;12.30;58.90;;;;;;20728014;28;20124;-80
2022/01/15 17:25:27;;;;;;;2.67;1.10;;;12.00;59.60;;;;;;20743469;28;20133;-78
2022/01/15 17:35:28;;;;;;;3.30;1.48;;;11.80;60.10;;;;;;20726444;28;20774;-74
2022/01/15 17:45:29;;;;;;;8.17;1.67;;;11.70;60.60;;;;;;20778385;28;20041;-72
2022/01/15 17:55:29;;;;;;;8.35;2.60;;;11.60;60.90;;;;;;20759883;28;20655;-72
2022/01/15 18:05:30;;;;;;;7.03;1.98;;;11.70;61.00;;;;;;20711507;28;20049;-73
2022/01/15 18:15:31;;;;;;;4.97;1.13;;;11.70;61.00;;;;;;20752824;28;20041;-71
2022/01/15 18:25:31;;;;;;;2.33;1.15;;;11.70;61.00;;;;;;20821577;28;20033;-71
2022/01/15 18:35:34;;;;;;;2.72;1.33;;;11.70;61.00;;;;;;20817857;28;20041;-72
2022/01/15 18:45:35;;;;;;;4.82;1.95;;;11.70;61.00;;;;;;20817534;28;20041;-71
2022/01/15 18:55:36;;;;;;;3.95;1.50;;;12.20;60.20;;;;;;20817323;28;20053;-75
2022/01/15 19:05:37;;;;;;;4.73;1.40;;;13.00;58.10;;;;;;20804172;28;20068;-74
2022/01/15 19:15:38;;;;;;;4.93;1.73;;;13.80;56.20;;;;;;20810324;28;20379;-74
2022/01/15 19:25:38;;;;;;;7.07;2.08;;;14.40;54.50;;;;;;20834504;28;20038;-73
2022/01/15 19:35:41;;;;;;;5.20;1.90;;;14.70;53.40;;;;;;20816773;28;20041;-73
2022/01/15 19:45:45;;;;;;;2.83;1.60;;;14.90;52.70;;;;;;20794707;28;20041;-74
2022/01/15 19:55:46;;;;;;;4.38;1.65;;;14.60;53.50;;;;;;20772220;28;20418;-74
2022/01/15 20:05:47;;;;;;;4.55;1.83;;;14.00;54.00;;;;;;20781119;28;20037;-78
2022/01/15 20:15:49;;;;;;;2.72;1.48;;;13.30;55.20;;;;;;20700236;28;20045;-77
2022/01/15 20:25:51;;;;;;;5.25;1.60;;;12.80;56.30;;;;;;20667627;28;20030;-77
2022/01/15 20:35:55;;;;;;;2.58;1.80;;;12.50;57.40;;;;;;20636113;28;20522;-77
2022/01/15 20:45:57;;;;;;;3.05;1.40;;;12.20;58.20;;;;;;20666898;28;20053;-78
2022/01/15 20:56:03;;;;;;;3.10;1.60;;;12.00;58.70;;;;;;20668232;28;20038;-78
2022/01/15 21:06:04;;;;;;;4.00;1.75;;;11.90;59.10;;;;;;20634263;28;20038;-77
2022/01/15 21:16:04;;;;;;;2.35;1.23;;;11.80;59.30;;;;;;20650507;28;20481;-77
2022/01/15 21:26:09;;;;;;;4.18;1.83;;;11.80;59.40;;;;;;20632321;28;20046;-77
2022/01/15 21:36:09;;;;;;;3.88;1.98;;;11.90;59.50;;;;;;20694767;28;20034;-78
2022/01/15 21:46:11;;;;;;;5.28;1.83;;;11.90;59.40;;;;;;20730210;28;20499;-78
2022/01/15 21:56:12;;;;;;;6.07;2.80;;;11.90;59.30;;;;;;20646710;28;20386;-78
2022/01/15 22:06:14;;;;;;;4.00;2.38;;;11.90;59.20;;;;;;20648119;28;20116;-78
2022/01/15 22:16:15;;;;;;;3.60;2.33;;;11.90;59.20;;;;;;20670763;28;20069;-77
2022/01/15 22:26:18;;;;;;;7.18;2.25;;;11.90;59.10;;;;;;20645324;28;20124;-78
2022/01/15 22:36:18;;;;;;;3.25;2.03;;;11.90;59.00;;;;;;20661707;28;20069;-78
2022/01/15 22:46:19;;;;;;;4.05;1.83;;;11.90;58.90;;;;;;20661477;28;20125;-77
2022/01/15 22:56:21;;;;;;;8.35;2.40;;;11.90;58.90;;;;;;20658989;28;20069;-78
2022/01/15 23:06:23;;;;;;;4.97;2.10;;;11.90;58.80;;;;;;20673634;28;20269;-77
2022/01/15 23:26:26;;;;;;;3.30;2.03;;;11.90;58.70;;;;;;20671858;28;20035;-79
2022/01/15 23:36:27;;;;;;;5.00;1.75;;;11.90;58.60;;;;;;20654139;28;20380;-77
2022/01/15 23:46:44;;;;;;;4.03;2.22;;;11.90;58.60;;;;;;20653653;28;20089;-78
2022/01/15 23:56:44;;;;;;;5.17;1.83;;;11.80;58.50;;;;;;20669041;28;20030;-77
